You are not logged in, Click here to log in
ICAO: RCMQ Country: 臺灣臺中市
Latitude: 24.255 Longitude: 120.601
Total Arrivals: 63 Total Departures: 59
Latest Arrival: FS31 (VVDN-RCMQ)CHU. CHUHAO Latest Departure: AE610 (RCMQ-VHHH)CHU. CHUHAO
Scenery:
METAR : RCMQ 180700Z 18010KT 9999 FEW012 SCT030 BKN100 29/24 Q1005 NOSIG RMK A2970

臺中清泉崗機場RMQ